createdAt,value
2018-11-29T00:00:34.074Z,99026.72
2018-11-29T00:03:01.790Z,99029.03
2018-11-29T00:05:29.346Z,99029.48
2018-11-29T00:07:56.923Z,99022.03
2018-11-29T00:10:24.511Z,99016.83
2018-11-29T00:12:52.181Z,99012.38
2018-11-29T00:15:20.663Z,99017.91
2018-11-29T00:17:48.342Z,99018.64
2018-11-29T00:20:17.260Z,99012.22
2018-11-29T00:22:45.163Z,99018.64
2018-11-29T00:25:14.273Z,99019.56
2018-11-29T00:27:42.124Z,99027.45
2018-11-29T00:30:15.502Z,99019.27
2018-11-29T00:32:43.182Z,99014.06
2018-11-29T00:35:11.109Z,99014.06
2018-11-29T00:37:38.702Z,99011.45
2018-11-29T00:40:11.056Z,99001.92
2018-11-29T00:42:38.729Z,99017.57
2018-11-29T00:45:07.679Z,99025.41
2018-11-29T00:47:35.413Z,99019.27
2018-11-29T00:50:02.911Z,99019.28
2018-11-29T00:52:30.475Z,99008.48
2018-11-29T00:54:58.173Z,99004.58
2018-11-29T00:57:25.749Z,99008.45
2018-11-29T00:59:53.386Z,99011.14
2018-11-29T01:02:21.082Z,99011.21
2018-11-29T01:04:48.939Z,99014.70
2018-11-29T01:07:16.596Z,99007.32
2018-11-29T01:09:44.314Z,99006.93
2018-11-29T01:12:11.932Z,98998.54
2018-11-29T01:14:39.612Z,98987.58
2018-11-29T01:17:07.266Z,98979.23
2018-11-29T01:19:34.835Z,98985.38
2018-11-29T01:22:02.488Z,98999.33
2018-11-29T01:24:30.281Z,98999.81
2018-11-29T01:26:57.847Z,99001.56
2018-11-29T01:29:25.611Z,99006.91
2018-11-29T01:31:53.209Z,99007.28
2018-11-29T01:34:20.785Z,99010.78
2018-11-29T01:36:48.349Z,99018.28
2018-11-29T01:39:16.069Z,99019.53
2018-11-29T01:41:43.659Z,99010.00
2018-11-29T01:44:11.344Z,99000.01
2018-11-29T01:46:39.215Z,99003.40
2018-11-29T01:49:06.841Z,99005.16
2018-11-29T01:51:34.413Z,99002.51
2018-11-29T01:54:01.933Z,99000.66
2018-11-29T01:56:29.536Z,99001.08
2018-11-29T01:58:57.122Z,98990.58
2018-11-29T02:01:24.841Z,98993.98
2018-11-29T02:03:52.601Z,99000.92
2018-11-29T02:06:20.189Z,98983.92
2018-11-29T02:08:47.698Z,98977.00
2018-11-29T02:11:15.293Z,98983.51
2018-11-29T02:13:42.864Z,98976.20
2018-11-29T02:16:10.408Z,98968.73
2018-11-29T02:18:38.011Z,98979.69
2018-11-29T02:21:06.266Z,98966.53
2018-11-29T02:23:33.860Z,98966.94
2018-11-29T02:26:01.390Z,98963.77
2018-11-29T02:28:29.139Z,98956.34
2018-11-29T02:30:56.833Z,98949.73
2018-11-29T02:33:24.390Z,98960.64
2018-11-29T02:35:51.956Z,98958.46
2018-11-29T02:38:19.555Z,98954.55
2018-11-29T02:40:47.115Z,98952.80
2018-11-29T02:43:14.794Z,98959.30
2018-11-29T02:45:42.327Z,98954.55
2018-11-29T02:48:09.971Z,98947.47
2018-11-29T02:50:37.617Z,98944.88
2018-11-29T02:53:05.301Z,98949.56
2018-11-29T02:55:32.985Z,98947.85
2018-11-29T02:58:00.560Z,98948.75
2018-11-29T03:00:28.102Z,98939.64
2018-11-29T03:02:55.781Z,98921.78
2018-11-29T03:05:23.419Z,98929.06
2018-11-29T03:07:51.166Z,98937.30
2018-11-29T03:10:28.063Z,98929.94
2018-11-29T03:12:55.685Z,98928.19
2018-11-29T03:15:23.273Z,98938.14
2018-11-29T03:17:50.857Z,98932.08
2018-11-29T03:20:18.436Z,98929.92
2018-11-29T03:22:45.961Z,98933.41
2018-11-29T03:25:14.130Z,98946.52
2018-11-29T03:27:41.984Z,98950.00
2018-11-29T03:30:11.219Z,98939.13
2018-11-29T03:32:38.821Z,98945.24
2018-11-29T03:35:06.508Z,98943.45
2018-11-29T03:37:34.058Z,98929.94
2018-11-29T03:40:01.812Z,98935.61
2018-11-29T03:42:29.352Z,98929.95
2018-11-29T03:44:57.002Z,98918.70
2018-11-29T03:47:24.718Z,98918.67
2018-11-29T03:49:52.246Z,98903.02
2018-11-29T03:52:20.044Z,98897.48
2018-11-29T03:54:47.594Z,98900.45
2018-11-29T03:57:15.354Z,98901.22
2018-11-29T04:02:16.858Z,98895.64
2018-11-29T04:04:44.461Z,98902.09
2018-11-29T04:07:12.125Z,98899.51
2018-11-29T04:09:39.712Z,98898.20
2018-11-29T04:12:07.244Z,98903.37
2018-11-29T04:14:34.765Z,98912.99
2018-11-29T04:17:02.580Z,98917.29
2018-11-29T04:19:30.113Z,98913.75
2018-11-29T04:21:57.775Z,98905.37
2018-11-29T04:24:25.409Z,98898.01
2018-11-29T04:26:52.978Z,98885.42
2018-11-29T04:29:20.500Z,98881.89
2018-11-29T04:31:48.080Z,98890.18
2018-11-29T04:34:15.882Z,98895.75
2018-11-29T04:36:43.790Z,98896.62
2018-11-29T04:39:11.756Z,98894.44
2018-11-29T04:41:39.272Z,98885.28
2018-11-29T04:44:06.837Z,98881.80
2018-11-29T04:46:51.900Z,98882.67
2018-11-29T04:49:19.446Z,98882.49
2018-11-29T04:51:47.030Z,98881.56
2018-11-29T04:54:14.631Z,98872.00
2018-11-29T04:56:42.251Z,98866.00
2018-11-29T04:59:09.980Z,98856.81
2018-11-29T05:01:37.897Z,98858.95
2018-11-29T05:04:05.742Z,98857.19
2018-11-29T05:06:33.415Z,98853.22
2018-11-29T05:09:00.968Z,98861.12
2018-11-29T05:11:28.547Z,98860.73
2018-11-29T05:13:56.193Z,98858.06
2018-11-29T05:16:23.705Z,98859.30
2018-11-29T05:18:51.531Z,98863.31
2018-11-29T05:21:19.052Z,98868.55
2018-11-29T05:23:46.622Z,98871.56
2018-11-29T05:26:14.175Z,98863.31
2018-11-29T05:28:41.884Z,98866.34
2018-11-29T05:31:09.510Z,98875.45
2018-11-29T05:33:37.093Z,98882.44
2018-11-29T05:36:04.833Z,98890.69
2018-11-29T05:38:32.398Z,98891.06
2018-11-29T05:41:00.001Z,98887.65
2018-11-29T05:43:27.832Z,98883.17
2018-11-29T05:45:55.392Z,98883.55
2018-11-29T05:48:22.936Z,98881.70
2018-11-29T05:50:50.624Z,98883.95
2018-11-29T05:53:18.277Z,98880.00
2018-11-29T05:55:45.822Z,98881.67
2018-11-29T05:58:13.434Z,98873.35
2018-11-29T06:00:41.241Z,98875.56
2018-11-29T06:03:08.826Z,98872.48
2018-11-29T06:05:36.486Z,98883.20
2018-11-29T06:08:04.205Z,98885.55
2018-11-29T06:10:31.813Z,98875.19
2018-11-29T06:12:59.355Z,98873.89
2018-11-29T06:15:26.949Z,98874.82
2018-11-29T06:17:54.491Z,98877.03
2018-11-29T06:20:22.281Z,98883.52
2018-11-29T06:22:56.193Z,98879.60
2018-11-29T06:25:24.129Z,98876.50
2018-11-29T06:27:51.847Z,98870.44
2018-11-29T06:30:20.882Z,98868.30
2018-11-29T06:32:49.079Z,98865.73
2018-11-29T06:35:16.708Z,98867.53
2018-11-29T06:37:44.289Z,98864.08
2018-11-29T06:40:12.415Z,98864.55
2018-11-29T06:42:39.991Z,98858.00
2018-11-29T06:45:09.626Z,98856.07
2018-11-29T06:47:37.173Z,98859.05
2018-11-29T06:50:05.828Z,98854.33
2018-11-29T06:52:33.449Z,98850.42
2018-11-29T06:55:01.104Z,98849.15
2018-11-29T06:57:28.613Z,98844.03
2018-11-29T06:59:56.397Z,98840.18
2018-11-29T07:02:23.943Z,98840.18
2018-11-29T07:04:51.508Z,98832.39
2018-11-29T07:07:19.091Z,98833.25
2018-11-29T07:09:46.753Z,98832.88
2018-11-29T07:12:14.858Z,98822.47
2018-11-29T07:14:42.486Z,98818.53
2018-11-29T07:17:10.079Z,98810.79
2018-11-29T07:19:37.583Z,98816.03
2018-11-29T07:22:05.396Z,98822.56
2018-11-29T07:24:33.029Z,98837.91
2018-11-29T07:27:00.626Z,98836.66
2018-11-29T07:29:28.218Z,98830.65
2018-11-29T07:31:55.806Z,98830.62
2018-11-29T07:34:23.339Z,98848.42
2018-11-29T07:36:50.897Z,98847.56
2018-11-29T07:39:18.490Z,98844.59
2018-11-29T07:41:46.746Z,98835.05
2018-11-29T07:44:14.491Z,98841.63
2018-11-29T07:46:42.073Z,98830.00
2018-11-29T07:49:09.629Z,98825.16
2018-11-29T07:51:37.327Z,98820.00
2018-11-29T07:54:04.992Z,98823.56
2018-11-29T07:56:32.655Z,98823.62
2018-11-29T07:59:00.333Z,98819.27
2018-11-29T08:01:27.974Z,98821.50
2018-11-29T08:03:55.532Z,98825.95
2018-11-29T08:06:23.089Z,98820.85
2018-11-29T08:08:50.645Z,98816.55
2018-11-29T08:11:18.310Z,98813.09
2018-11-29T08:13:45.870Z,98810.53
2018-11-29T08:16:13.533Z,98807.11
2018-11-29T08:18:41.315Z,98805.87
2018-11-29T08:21:09.025Z,98803.36
2018-11-29T08:23:36.610Z,98796.84
2018-11-29T08:26:04.279Z,98799.01
2018-11-29T08:28:31.823Z,98790.31
2018-11-29T08:30:59.389Z,98794.73
2018-11-29T08:33:26.952Z,98790.83
2018-11-29T08:35:54.522Z,98793.45
2018-11-29T08:38:22.085Z,98791.71
2018-11-29T08:40:49.618Z,98789.94
2018-11-29T08:43:17.190Z,98777.72
2018-11-29T08:45:44.954Z,98773.34
2018-11-29T08:48:12.598Z,98765.03
2018-11-29T08:50:40.200Z,98766.37
2018-11-29T08:53:07.732Z,98763.28
2018-11-29T08:55:35.304Z,98758.45
2018-11-29T08:58:02.829Z,98751.45
2018-11-29T09:00:30.617Z,98748.86
2018-11-29T09:02:58.165Z,98747.09
2018-11-29T09:05:25.991Z,98748.80
2018-11-29T09:07:53.551Z,98754.44
2018-11-29T09:10:21.881Z,98748.77
2018-11-29T09:12:49.460Z,98745.27
2018-11-29T09:15:17.486Z,98742.20
2018-11-29T09:17:45.089Z,98733.80
2018-11-29T09:20:14.296Z,98732.01
2018-11-29T09:22:41.911Z,98731.59
2018-11-29T09:25:10.232Z,98726.77
2018-11-29T09:27:37.864Z,98727.23
2018-11-29T09:30:12.596Z,98734.13
2018-11-29T09:32:40.346Z,98732.66
2018-11-29T09:35:08.049Z,98731.77
2018-11-29T09:37:35.762Z,98737.75
2018-11-29T09:40:03.383Z,98737.33
2018-11-29T09:42:31.016Z,98739.39
2018-11-29T09:44:58.543Z,98738.44
2018-11-29T09:47:26.235Z,98742.80
2018-11-29T09:49:53.866Z,98740.07
2018-11-29T09:52:21.452Z,98741.73
2018-11-29T09:54:49.111Z,98747.62
2018-11-29T09:57:16.735Z,98749.42
2018-11-29T09:59:44.299Z,98749.97
2018-11-29T10:02:11.802Z,98738.73
2018-11-29T10:04:39.353Z,98737.31
2018-11-29T10:07:06.888Z,98721.67
2018-11-29T10:09:34.460Z,98706.16
2018-11-29T10:12:01.958Z,98702.33
2018-11-29T10:14:29.606Z,98697.11
2018-11-29T10:16:57.289Z,98688.03
2018-11-29T10:19:24.797Z,98682.91
2018-11-29T10:21:52.380Z,98668.35
2018-11-29T10:24:20.019Z,98656.13
2018-11-29T10:26:47.581Z,98661.00
2018-11-29T10:29:15.148Z,98665.34
2018-11-29T10:31:42.719Z,98672.41
2018-11-29T10:34:10.461Z,98663.08
2018-11-29T10:36:38.021Z,98659.47
2018-11-29T10:39:07.064Z,98645.95
2018-11-29T10:41:34.698Z,98647.73
2018-11-29T10:44:02.336Z,98648.84
2018-11-29T10:46:29.858Z,98634.48
2018-11-29T10:48:57.475Z,98634.84
2018-11-29T10:51:25.123Z,98630.21
2018-11-29T10:53:52.904Z,98623.63
2018-11-29T10:56:20.675Z,98620.02
2018-11-29T10:58:48.210Z,98628.52
2018-11-29T11:01:21.044Z,98629.31
2018-11-29T11:03:48.657Z,98626.65
2018-11-29T11:06:16.268Z,98618.12
2018-11-29T11:08:43.960Z,98626.65
2018-11-29T11:11:11.502Z,98617.56
2018-11-29T11:13:39.113Z,98608.83
2018-11-29T11:16:06.955Z,98605.30
2018-11-29T11:18:34.821Z,98596.90
2018-11-29T11:21:02.555Z,98592.94
2018-11-29T11:23:30.207Z,98592.66
2018-11-29T11:25:57.773Z,98586.52
2018-11-29T11:28:25.363Z,98589.87
2018-11-29T11:30:52.883Z,98597.45
2018-11-29T11:33:20.398Z,98604.54
2018-11-29T11:35:48.183Z,98612.30
2018-11-29T11:38:15.757Z,98608.25
2018-11-29T11:40:43.374Z,98612.25
2018-11-29T11:43:10.974Z,98608.75
2018-11-29T11:45:38.571Z,98601.84
2018-11-29T11:48:06.694Z,98599.97
2018-11-29T11:50:34.609Z,98598.50
2018-11-29T11:53:02.262Z,98599.05
2018-11-29T11:55:30.452Z,98595.22
2018-11-29T11:57:57.448Z,98592.94
2018-11-29T12:00:29.613Z,98580.49
2018-11-29T12:02:57.810Z,98578.67
2018-11-29T12:05:25.373Z,98592.05
2018-11-29T12:07:52.915Z,98592.66
2018-11-29T12:10:20.447Z,98593.50
2018-11-29T12:12:48.220Z,98590.77
2018-11-29T12:15:15.926Z,98595.14
2018-11-29T12:17:44.146Z,98588.99
2018-11-29T12:20:12.200Z,98581.36
2018-11-29T12:22:39.974Z,98577.42
2018-11-29T12:25:08.625Z,98573.70
2018-11-29T12:27:36.212Z,98560.20
2018-11-29T12:30:04.463Z,98552.77
2018-11-29T12:32:32.026Z,98550.80
2018-11-29T12:34:59.912Z,98553.14
2018-11-29T12:37:27.495Z,98559.50
2018-11-29T12:39:55.045Z,98546.84
2018-11-29T12:42:22.794Z,98544.17
2018-11-29T12:44:50.319Z,98538.81
2018-11-29T12:47:17.938Z,98535.03
2018-11-29T12:49:45.615Z,98523.61
2018-11-29T12:52:13.177Z,98519.35
2018-11-29T12:54:40.751Z,98510.97
2018-11-29T12:57:08.292Z,98501.16
2018-11-29T12:59:36.052Z,98504.10
2018-11-29T13:02:03.637Z,98503.72
2018-11-29T13:04:32.260Z,98499.38
2018-11-29T13:06:58.888Z,98492.04
2018-11-29T13:09:26.540Z,98491.66
2018-11-29T13:11:54.134Z,98496.10
2018-11-29T13:14:21.754Z,98499.18
2018-11-29T13:16:49.483Z,98494.95
2018-11-29T13:19:17.176Z,98486.08
2018-11-29T13:21:44.729Z,98484.60
2018-11-29T13:24:12.288Z,98481.07
2018-11-29T13:26:39.958Z,98477.88
2018-11-29T13:29:07.528Z,98469.09
2018-11-29T13:31:35.242Z,98476.23
2018-11-29T13:34:02.792Z,98483.63
2018-11-29T13:36:30.587Z,98484.06
2018-11-29T13:38:58.285Z,98481.58
2018-11-29T13:41:26.119Z,98479.27
2018-11-29T13:43:53.753Z,98477.95
2018-11-29T13:46:21.423Z,98483.38
2018-11-29T13:48:48.996Z,98473.12
2018-11-29T13:51:16.546Z,98476.95
2018-11-29T13:53:44.188Z,98475.70
2018-11-29T13:56:11.815Z,98473.13
2018-11-29T13:58:39.361Z,98473.42
2018-11-29T14:01:06.932Z,98464.22
2018-11-29T14:03:34.533Z,98459.96
2018-11-29T14:06:02.094Z,98460.89
2018-11-29T14:08:29.650Z,98463.03
2018-11-29T14:10:57.320Z,98464.04
2018-11-29T14:13:24.837Z,98466.88
2018-11-29T14:15:52.381Z,98458.08
2018-11-29T14:18:20.043Z,98460.78
2018-11-29T14:20:47.654Z,98459.80
2018-11-29T14:23:15.227Z,98454.86
2018-11-29T14:25:43.103Z,98460.05
2018-11-29T14:28:10.628Z,98462.88
2018-11-29T14:30:38.851Z,98463.70
2018-11-29T14:33:06.725Z,98465.59
2018-11-29T14:35:34.459Z,98456.84
2018-11-29T14:38:02.107Z,98454.81
2018-11-29T14:40:31.026Z,98457.23
2018-11-29T14:42:58.651Z,98451.51
2018-11-29T14:45:26.699Z,98455.58
2018-11-29T14:47:54.566Z,98445.25
2018-11-29T14:50:25.673Z,98450.09
2018-11-29T14:52:53.257Z,98446.56
2018-11-29T14:55:21.804Z,98446.61
2018-11-29T14:57:48.460Z,98444.04
2018-11-29T15:00:16.097Z,98438.84
2018-11-29T15:02:43.698Z,98426.69
2018-11-29T15:05:15.331Z,98421.03
2018-11-29T15:07:42.965Z,98417.19
2018-11-29T15:10:10.540Z,98418.58
2018-11-29T15:12:38.207Z,98416.45
2018-11-29T15:15:06.977Z,98414.91
2018-11-29T15:17:34.588Z,98416.27
2018-11-29T15:20:02.214Z,98406.67
2018-11-29T15:22:29.867Z,98396.16
2018-11-29T15:24:57.483Z,98397.03
2018-11-29T15:27:25.170Z,98386.20
2018-11-29T15:29:52.764Z,98382.42
2018-11-29T15:32:20.404Z,98377.22
2018-11-29T15:34:48.021Z,98372.77
2018-11-29T15:37:15.554Z,98371.56
2018-11-29T15:39:43.248Z,98362.83
2018-11-29T15:42:10.841Z,98357.61
2018-11-29T15:44:38.369Z,98344.66
2018-11-29T15:47:05.985Z,98337.23
2018-11-29T15:49:33.647Z,98352.52
2018-11-29T15:52:01.182Z,98370.05
2018-11-29T15:54:28.874Z,98390.20
2018-11-29T15:56:56.389Z,98391.11
2018-11-29T15:59:23.963Z,98400.25
2018-11-29T16:01:51.522Z,98388.13
2018-11-29T16:04:19.181Z,98395.19
2018-11-29T16:06:46.757Z,98406.42
2018-11-29T16:09:14.422Z,98419.55
2018-11-29T16:11:42.009Z,98420.50
2018-11-29T16:14:09.537Z,98415.11
2018-11-29T16:16:37.069Z,98409.04
2018-11-29T16:19:04.636Z,98416.86
2018-11-29T16:21:32.209Z,98428.64
2018-11-29T16:23:59.880Z,98428.63
2018-11-29T16:26:27.587Z,98409.44
2018-11-29T16:28:55.198Z,98408.13
2018-11-29T16:31:22.864Z,98415.95
2018-11-29T16:36:24.447Z,98391.52
2018-11-29T16:38:52.468Z,98389.74
2018-11-29T16:41:20.154Z,98391.06
2018-11-29T16:43:47.670Z,98389.98
2018-11-29T16:46:15.304Z,98397.22
2018-11-29T16:48:42.831Z,98390.66
2018-11-29T16:51:10.385Z,98385.81
2018-11-29T16:53:37.993Z,98390.15
2018-11-29T16:56:05.605Z,98396.72
2018-11-29T16:58:33.151Z,98394.95
2018-11-29T17:01:00.779Z,98385.30
2018-11-29T17:03:28.505Z,98378.23
2018-11-29T17:05:56.059Z,98373.48
2018-11-29T17:08:23.608Z,98369.95
2018-11-29T17:10:51.755Z,98360.41
2018-11-29T17:13:19.537Z,98366.06
2018-11-29T17:15:47.129Z,98382.32
2018-11-29T17:18:14.740Z,98373.59
2018-11-29T17:20:42.313Z,98380.66
2018-11-29T17:23:10.363Z,98382.42
2018-11-29T17:25:37.919Z,98387.72
2018-11-29T17:28:05.985Z,98385.96
2018-11-29T17:33:08.246Z,98379.90
2018-11-29T17:35:36.280Z,98378.27
2018-11-29T17:38:04.010Z,98378.36
2018-11-29T17:40:31.716Z,98374.51
2018-11-29T17:42:59.337Z,98372.84
2018-11-29T17:45:27.643Z,98367.34
2018-11-29T17:47:57.839Z,98364.40
2018-11-29T17:50:29.289Z,98363.98
2018-11-29T17:52:56.936Z,98361.48
2018-11-29T17:55:24.591Z,98365.91
2018-11-29T17:57:52.174Z,98361.14
2018-11-29T18:00:21.489Z,98355.08
2018-11-29T18:02:49.208Z,98360.08
2018-11-29T18:05:17.044Z,98358.22
2018-11-29T18:07:44.636Z,98363.05
2018-11-29T18:10:15.113Z,98361.70
2018-11-29T18:12:43.139Z,98360.45
2018-11-29T18:15:12.065Z,98360.11
2018-11-29T18:17:39.656Z,98365.89
2018-11-29T18:20:08.087Z,98371.88
2018-11-29T18:22:35.824Z,98382.86
2018-11-29T18:25:03.375Z,98378.95
2018-11-29T18:27:30.941Z,98376.78
2018-11-29T18:29:58.529Z,98389.00
2018-11-29T18:32:26.063Z,98378.55
2018-11-29T18:34:53.708Z,98376.76
2018-11-29T18:37:21.304Z,98364.61
2018-11-29T18:39:48.794Z,98365.08
2018-11-29T18:42:16.333Z,98364.19
2018-11-29T18:44:43.903Z,98370.80
2018-11-29T18:47:14.270Z,98365.95
2018-11-29T18:49:41.944Z,98374.25
2018-11-29T18:52:09.774Z,98369.91
2018-11-29T18:54:37.512Z,98369.91
2018-11-29T18:57:05.354Z,98368.18
2018-11-29T18:59:33.010Z,98365.11
2018-11-29T19:02:00.699Z,98371.25
2018-11-29T19:04:28.294Z,98376.52
2018-11-29T19:06:55.975Z,98366.50
2018-11-29T19:09:23.672Z,98372.22
2018-11-29T19:11:51.317Z,98375.73
2018-11-29T19:14:18.976Z,98379.26
2018-11-29T19:16:46.515Z,98375.80
2018-11-29T19:19:14.310Z,98377.52
2018-11-29T19:21:41.842Z,98377.08
2018-11-29T19:24:09.454Z,98367.94
2018-11-29T19:26:37.065Z,98364.45
2018-11-29T19:29:05.140Z,98364.95
2018-11-29T19:31:32.824Z,98362.34
2018-11-29T19:34:01.554Z,98367.14
2018-11-29T19:36:27.960Z,98368.45
2018-11-29T19:38:55.639Z,98355.83
2018-11-29T19:41:23.236Z,98358.42
2018-11-29T19:43:50.936Z,98358.02
2018-11-29T19:46:18.617Z,98353.20
2018-11-29T19:48:46.228Z,98357.15
2018-11-29T19:51:13.893Z,98356.70
2018-11-29T19:53:41.556Z,98361.93
2018-11-29T19:56:09.266Z,98364.56
2018-11-29T19:58:36.796Z,98370.67
2018-11-29T20:01:04.526Z,98360.61
2018-11-29T20:03:32.007Z,98351.89
2018-11-29T20:05:59.587Z,98348.84
2018-11-29T20:08:27.155Z,98350.58
2018-11-29T20:10:54.650Z,98351.05
2018-11-29T20:13:22.260Z,98351.02
2018-11-29T20:15:50.701Z,98361.50
2018-11-29T20:18:18.252Z,98368.47
2018-11-29T20:20:45.757Z,98363.27
2018-11-29T20:23:13.394Z,98365.02
2018-11-29T20:25:41.870Z,98363.77
2018-11-29T20:28:09.442Z,98359.41
2018-11-29T20:30:37.087Z,98368.59
2018-11-29T20:33:05.550Z,98376.44
2018-11-29T20:35:33.074Z,98369.02
2018-11-29T20:38:00.716Z,98375.99
2018-11-29T20:40:31.483Z,98377.77
2018-11-29T20:42:59.723Z,98387.36
2018-11-29T20:45:31.129Z,98383.89
2018-11-29T20:47:58.731Z,98371.20
2018-11-29T20:50:27.006Z,98381.69
2018-11-29T20:52:55.284Z,98384.30
2018-11-29T20:55:24.507Z,98380.36
2018-11-29T20:57:52.186Z,98375.59
2018-11-29T21:00:19.965Z,98383.02
2018-11-29T21:02:47.553Z,98376.48
2018-11-29T21:05:15.809Z,98383.03
2018-11-29T21:07:44.631Z,98384.34
2018-11-29T21:10:14.202Z,98381.73
2018-11-29T21:12:41.973Z,98391.80
2018-11-29T21:15:09.497Z,98384.38
2018-11-29T21:17:37.088Z,98387.44
2018-11-29T21:20:05.641Z,98388.75
2018-11-29T21:22:33.197Z,98386.61
2018-11-29T21:25:00.985Z,98390.98
2018-11-29T21:27:28.649Z,98389.23
2018-11-29T21:29:56.273Z,98383.12
2018-11-29T21:32:23.873Z,98382.26
2018-11-29T21:34:51.495Z,98375.73
2018-11-29T21:37:19.091Z,98366.14
2018-11-29T21:39:46.864Z,98369.20
2018-11-29T21:42:14.400Z,98367.45
2018-11-29T21:44:42.133Z,98366.61
2018-11-29T21:47:09.782Z,98361.39
2018-11-29T21:49:37.335Z,98362.69
2018-11-29T21:52:04.973Z,98362.70
2018-11-29T21:54:32.529Z,98362.69
2018-11-29T21:57:00.200Z,98367.06
2018-11-29T21:59:27.887Z,98353.56
2018-11-29T22:01:55.422Z,98347.03
2018-11-29T22:04:23.329Z,98352.70
2018-11-29T22:06:52.644Z,98350.08
2018-11-29T22:09:20.246Z,98354.43
2018-11-29T22:11:47.909Z,98359.66
2018-11-29T22:14:15.593Z,98363.59
2018-11-29T22:16:43.257Z,98362.30
2018-11-29T22:19:10.800Z,98368.84
2018-11-29T22:21:38.393Z,98364.03
2018-11-29T22:24:06.041Z,98359.70
2018-11-29T22:26:33.592Z,98364.05
2018-11-29T22:29:01.155Z,98358.81
2018-11-29T22:31:28.681Z,98357.08
2018-11-29T22:33:56.447Z,98360.11
2018-11-29T22:36:24.024Z,98355.34
2018-11-29T22:38:51.588Z,98353.61
2018-11-29T22:41:19.254Z,98355.78
2018-11-29T22:43:46.893Z,98358.40
2018-11-29T22:46:14.478Z,98361.00
2018-11-29T22:48:42.173Z,98357.53
2018-11-29T22:51:10.061Z,98348.38
2018-11-29T22:53:37.666Z,98346.64
2018-11-29T22:56:06.699Z,98343.16
2018-11-29T22:58:34.330Z,98347.52
2018-11-29T23:01:01.922Z,98339.22
2018-11-29T23:03:29.738Z,98338.36
2018-11-29T23:05:57.320Z,98339.25
2018-11-29T23:08:24.997Z,98344.88
2018-11-29T23:10:52.719Z,98335.31
2018-11-29T23:13:21.558Z,98336.17
2018-11-29T23:15:50.680Z,98342.27
2018-11-29T23:18:18.210Z,98339.67
2018-11-29T23:20:47.105Z,98344.45
2018-11-29T23:23:14.660Z,98347.08
2018-11-29T23:25:42.973Z,98344.89
2018-11-29T23:28:11.597Z,98342.29
2018-11-29T23:30:39.206Z,98337.95
2018-11-29T23:33:06.856Z,98340.55
2018-11-29T23:35:34.405Z,98335.30
2018-11-29T23:38:01.945Z,98332.72
2018-11-29T23:40:29.502Z,98323.98
2018-11-29T23:42:57.165Z,98332.27
2018-11-29T23:45:24.896Z,98332.70
2018-11-29T23:47:52.477Z,98332.25
2018-11-29T23:50:20.061Z,98333.16
2018-11-29T23:52:47.620Z,98337.92
2018-11-29T23:55:15.831Z,98338.80
2018-11-29T23:57:43.360Z,98344.01
